Kahuta Weather



Kahuta's Current Weather

Temprature 6.11o clear sky

clear sky

Rain: 0 %

Min Temprature6.11o
Max Temprature6.11o
Humidity89
Wind Speed0.45 m/h
Sun Rise07:09:53
Sun Set17:23:23
Current Time: 18-Jan-2021 06:00:54
Lat/Lon: 33.5913, 73.3868




Kahuta's Geo Location



Kahuta's Weather Forecast

Time Overall Temp Min Temp Max Temp Humidity Wind Speed Rain
18-Jan-2021 (Mon)
08:00:00 clear sky 7.730 7.730 9.420 69 1.96 m/h 0 %
11:00:00 clear sky 14.250 14.250 16.490 45 0.52 m/h 0 %
14:00:00 clear sky 17.330 17.330 18.100 33 2.16 m/h 0 %
17:00:00 clear sky 14.370 14.370 14.440 43 1.33 m/h 0 %
20:00:00 clear sky 11.270 11.270 11.270 47 1.47 m/h 0 %
23:00:00 clear sky 10.380 10.380 10.380 47 2.09 m/h 0 %
19-Jan-2021 (Tue)
02:00:00 clear sky 9.580 9.580 9.580 48 2.56 m/h 0 %
05:00:00 clear sky 8.800 8.800 8.800 48 2.31 m/h 0 %
08:00:00 clear sky 9.430 9.430 9.430 46 2.67 m/h 0 %
11:00:00 clear sky 17.350 17.350 17.350 29 1.1 m/h 0 %
14:00:00 clear sky 19.440 19.440 19.440 25 2.24 m/h 0 %
17:00:00 clear sky 15.140 15.140 15.140 35 1.52 m/h 0 %
20:00:00 clear sky 11.890 11.890 11.890 41 1.77 m/h 0 %
23:00:00 clear sky 10.790 10.790 10.790 44 2.47 m/h 0 %
20-Jan-2021 (Wed)
02:00:00 clear sky 9.910 9.910 9.910 44 2.75 m/h 0 %
05:00:00 clear sky 9.180 9.180 9.180 44 3.05 m/h 0 %
08:00:00 clear sky 9.600 9.600 9.600 45 2.87 m/h 0 %
11:00:00 clear sky 17.850 17.850 17.850 27 1.57 m/h 0 %
14:00:00 clear sky 20.670 20.670 20.670 23 3.04 m/h 0 %
17:00:00 few clouds 15.690 15.690 15.690 33 2.31 m/h 0 %
20:00:00 broken clouds 12.610 12.610 12.610 38 2.51 m/h 0 %
23:00:00 scattered clouds 10.750 10.750 10.750 41 2.87 m/h 0 %
21-Jan-2021 (Thu)
02:00:00 scattered clouds 9.600 9.600 9.600 44 3.28 m/h 0 %
05:00:00 scattered clouds 8.990 8.990 8.990 45 3.24 m/h 0 %
08:00:00 overcast clouds 9.600 9.600 9.600 43 3.3 m/h 0 %
11:00:00 broken clouds 17.110 17.110 17.110 27 0.92 m/h 0 %
14:00:00 overcast clouds 19.420 19.420 19.420 24 2.08 m/h 0 %
17:00:00 overcast clouds 14.740 14.740 14.740 34 0.6 m/h 0 %
20:00:00 overcast clouds 12.010 12.010 12.010 39 1.49 m/h 0 %
23:00:00 broken clouds 10.850 10.850 10.850 41 2.64 m/h 0 %
22-Jan-2021 (Fri)
02:00:00 few clouds 10.590 10.590 10.590 41 3.18 m/h 0 %
05:00:00 broken clouds 10.490 10.490 10.490 41 2.83 m/h 0 %
08:00:00 broken clouds 11.020 11.020 11.020 41 2.57 m/h 0 %
11:00:00 broken clouds 18.300 18.300 18.300 26 2.02 m/h 0 %
14:00:00 scattered clouds 19.770 19.770 19.770 25 3.9 m/h 0 %
17:00:00 few clouds 15.480 15.480 15.480 36 2.39 m/h 0 %
20:00:00 scattered clouds 12.450 12.450 12.450 42 2.47 m/h 0 %
23:00:00 scattered clouds 11.810 11.810 11.810 43 2.58 m/h 0 %
23-Jan-2021 (Sat)
02:00:00 broken clouds 11.820 11.820 11.820 42 2.43 m/h 0 %
05:00:00 broken clouds 10.800 10.800 10.800 46 1.76 m/h 0 %

Famous Cities (60)